Track Горланов Сергей

Time Latitude Longitude Accuracy (66% radius in meters) Altitude (meters) Speed (km/hour) Bearing (degrees) Battery (%) GPS flag
10:21:59 60.370972 29.556523 24 74.069485188951 0.39563354849815 36.923450469971 93 0 delete
10:21:47 60.370972 29.556523 24 74.069485188951 0.39563354849815 36.923450469971 93 0 delete
10:21:36 60.370972 29.556523 24 74.069485188951 0.39563354849815 36.923450469971 93 0 delete
10:21:24 60.370972 29.556523 24 74.069485188951 0.39563354849815 36.923450469971 93 0 delete
10:21:13 60.370972 29.556523 24 74.069485188951 0.39563354849815 36.923450469971 93 0 delete
09:20:53 60.370981 29.556521 12 73.880819017818 0.26731133460999 2.1205976009369 93 1 delete
09:20:50 60.370972 29.556523 24 74.069485188951 0.39563354849815 36.923450469971 93 1 delete
09:20:47 60.370961 29.556497 16 74.092275425324 0.67596191167831 39.033950805664 93 1 delete
09:20:38 60.370933 29.556453 8 76.136441819819 0 225.88236999512 93 1 delete
09:20:26 60.370943 29.556439 8 76.991021534351 1.5325138568878 121.50112915039 93 1 delete
09:20:23 60.370969 29.556311 8 77.066719862793 1.6935384273529 128.13302612305 93 1 delete
09:20:20 60.371010 29.556252 4 77.098412521907 1.6829231977463 181.95593261719 93 1 delete
09:20:17 60.371073 29.556245 8 77.059377621607 1.5549839735031 179.02285766602 93 1 delete
09:20:14 60.371129 29.556251 6 76.995746367536 1.4707816839218 203.12071228027 93 1 delete
09:20:11 60.371179 29.556319 8 76.576390501074 1.4403570890427 219.50038146973 93 1 delete
09:20:08 60.371218 29.556386 12 76.236890397355 1.4565578699112 197.4850769043 93 1 delete
09:20:05 60.371268 29.556435 6 76.257595938757 1.4067106246948 219.02250671387 93 1 delete
09:20:02 60.371317 29.556512 8 76.324729834797 1.1405494213104 0 93 1 delete
09:19:50 60.371368 29.556554 8 75.540072835681 0.37142723798752 0 93 1 delete
09:19:38 60.371368 29.556554 12 75.518890554136 0 0 93 1 delete
09:19:29 60.371368 29.556554 6 75.483226064909 0 0 93 1 delete
09:19:17 60.371368 29.556554 6 76.099269327228 0 0 93 1 delete
09:19:08 60.371368 29.556554 6 76.210390402322 0 0 93 1 delete
09:18:56 60.371368 29.556554 8 76.397218866185 0.0016698241233826 0 93 1 delete
09:18:47 60.371368 29.556554 12 76.166869399561 0 0 93 1 delete
09:18:35 60.371368 29.556554 6 76.001734609096 0.002963662147522 0 93 1 delete
09:18:26 60.371368 29.556554 4 75.9774129072 0 0 93 1 delete
09:18:14 60.371368 29.556554 6 76.000020257757 0 0 93 1 delete
09:18:05 60.371368 29.556554 12 75.756942026783 0 0 93 1 delete
09:17:53 60.371368 29.556554 6 75.527420918592 0.32596060633659 0 93 1 delete
09:17:44 60.371368 29.556554 6 75.357248682877 0 0 93 1 delete
09:17:32 60.371368 29.556554 8 75.159519609857 0 0 93 1 delete
09:17:20 60.371368 29.556554 6 75.066245344219 0 0 93 1 delete
09:17:08 60.371368 29.556554 4 75.096842581197 0 0 93 1 delete
09:16:56 60.371368 29.556554 4 75.13809111597 0 0 93 1 delete
09:16:44 60.371368 29.556554 4 75.182592203118 0 0 93 1 delete
09:16:35 60.371368 29.556554 4 75.242679985012 0 0 93 1 delete
09:16:23 60.371368 29.556554 4 75.277432938206 0 0 93 1 delete
09:16:11 60.371368 29.556554 4 75.258069687867 0 0 93 1 delete
09:15:59 60.371368 29.556554 6 75.24797861812 0 0 93 1 delete
09:15:47 60.371368 29.556554 4 75.307318859627 0 0 93 1 delete
09:15:38 60.371368 29.556554 4 75.378346853115 0 0 93 1 delete
09:15:26 60.371368 29.556554 4 75.481158503365 0 0 93 1 delete
09:15:14 60.371368 29.556554 8 75.702525838913 0.011267661117017 0 93 1 delete
09:14:38 60.371333 29.556547 4 75.995226696863 0 0 93 1 delete
09:14:29 60.371333 29.556547 4 76.128316423386 0 0 93 1 delete
09:14:17 60.371333 29.556547 8 76.280394961016 0 0 93 1 delete
09:14:05 60.371333 29.556547 8 76.418408322811 0 0 96 1 delete
09:13:53 60.371333 29.556547 6 76.516753360686 0 0 96 1 delete
09:13:41 60.371333 29.556547 8 76.645400788121 0 0 96 1 delete